Time;durP1;ratioP1;P1;durP2;ratioP2;P2;SDS_P1;SDS_P2;PMS_P1;PMS_P2;Temp;Humidity;BMP_temperature;BMP_pressure;BME280_temperature;BME280_humidity;BME280_pressure;Samples;Min_cycle;Max_cycle;Signal;HPM_P1;HPM_P2
2022/10/30 00:02:22;;;;;;;;;7.00;6.75;;;;;;;;5088160;28;8891;-75
2022/10/30 00:04:47;;;;;;;;;6.00;6.00;;;;;;;;5088670;28;8906;-75
2022/10/30 00:07:13;;;;;;;;;11.00;7.00;;;;;;;;5088642;28;8807;-76
2022/10/30 00:09:38;;;;;;;;;10.00;8.75;;;;;;;;5088350;28;8796;-77
2022/10/30 00:12:03;;;;;;;;;7.25;7.00;;;;;;;;5087149;28;9406;-76
2022/10/30 00:14:29;;;;;;;;;10.00;8.25;;;;;;;;5088885;28;8820;-76
2022/10/30 00:16:54;;;;;;;;;8.25;6.50;;;;;;;;5087757;28;8888;-76
2022/10/30 00:19:19;;;;;;;;;8.00;7.00;;;;;;;;5088482;28;8812;-76
2022/10/30 00:21:44;;;;;;;;;7.00;7.00;;;;;;;;5088244;28;8888;-74
2022/10/30 00:24:10;;;;;;;;;8.75;7.00;;;;;;;;5090001;28;8796;-76
2022/10/30 00:26:35;;;;;;;;;8.00;7.00;;;;;;;;5088073;28;9645;-76
2022/10/30 00:29:04;;;;;;;;;8.00;6.00;;;;;;;;5088315;28;8836;-75
2022/10/30 00:31:29;;;;;;;;;7.75;6.00;;;;;;;;5090763;28;8814;-76
2022/10/30 00:33:54;;;;;;;;;6.00;6.00;;;;;;;;5110060;28;11379;-76
2022/10/30 00:36:20;;;;;;;;;4.50;4.50;;;;;;;;5109597;28;8773;-75
2022/10/30 00:38:45;;;;;;;;;7.00;6.50;;;;;;;;5109602;28;8805;-74
2022/10/30 00:41:15;;;;;;;;;9.75;8.50;;;;;;;;5109748;28;8906;-76
2022/10/30 00:43:40;;;;;;;;;6.75;6.75;;;;;;;;5109855;28;9547;-75
2022/10/30 00:46:24;;;;;;;;;8.50;6.00;;;;;;;;5109312;28;11341;-74
2022/10/30 00:49:10;;;;;;;;;10.00;7.50;;;;;;;;5109786;28;8781;-73
2022/10/30 00:51:36;;;;;;;;;11.00;8.75;;;;;;;;5094171;28;11421;-75
2022/10/30 00:54:02;;;;;;;;;13.25;8.00;;;;;;;;5109171;28;11500;-74
2022/10/30 00:56:28;;;;;;;;;7.75;7.75;;;;;;;;5109722;28;11500;-76
2022/10/30 00:58:56;;;;;;;;;8.25;7.00;;;;;;;;5113006;28;8841;-76
2022/10/30 01:01:23;;;;;;;;;9.25;7.50;;;;;;;;5110723;28;8781;-76
2022/10/30 01:03:51;;;;;;;;;7.00;7.00;;;;;;;;5109627;28;11370;-74
2022/10/30 01:06:17;;;;;;;;;9.00;7.50;;;;;;;;5109435;28;11463;-75
2022/10/30 01:08:43;;;;;;;;;8.00;7.00;;;;;;;;5109782;28;11379;-76
2022/10/30 01:11:09;;;;;;;;;8.00;6.00;;;;;;;;5110016;28;8789;-75
2022/10/30 01:13:35;;;;;;;;;7.00;7.00;;;;;;;;5113579;28;8813;-75
2022/10/30 01:16:00;;;;;;;;;8.50;7.25;;;;;;;;5112283;28;11376;-76
2022/10/30 01:18:28;;;;;;;;;7.00;6.75;;;;;;;;5113537;28;11370;-76
2022/10/30 01:21:10;;;;;;;;;7.00;5.50;;;;;;;;5113138;28;8865;-75
2022/10/30 01:23:41;;;;;;;;;6.25;6.25;;;;;;;;5113264;28;11374;-74
2022/10/30 01:26:25;;;;;;;;;9.50;6.00;;;;;;;;5112113;28;11361;-76
2022/10/30 01:29:10;;;;;;;;;8.75;6.75;;;;;;;;5112698;28;12086;-75
2022/10/30 01:31:45;;;;;;;;;4.50;4.00;;;;;;;;5112825;28;11359;-76
2022/10/30 01:34:10;;;;;;;;;6.00;4.50;;;;;;;;5113372;28;11504;-75
2022/10/30 01:36:48;;;;;;;;;6.00;6.00;;;;;;;;5112667;28;11347;-75
2022/10/30 01:39:34;;;;;;;;;12.25;7.75;;;;;;;;5116691;28;8823;-75
2022/10/30 01:41:59;;;;;;;;;6.50;6.50;;;;;;;;5119666;28;11481;-74
2022/10/30 01:44:30;;;;;;;;;7.25;6.75;;;;;;;;5111104;28;11377;-74
2022/10/30 01:46:55;;;;;;;;;6.50;6.00;;;;;;;;5112710;28;8908;-76
2022/10/30 01:49:26;;;;;;;;;5.50;4.00;;;;;;;;5112257;28;11397;-74
2022/10/30 01:51:57;;;;;;;;;7.00;5.00;;;;;;;;5112517;28;8813;-74
2022/10/30 01:54:31;;;;;;;;;6.00;6.00;;;;;;;;5112091;28;11346;-74
2022/10/30 01:57:02;;;;;;;;;6.25;6.25;;;;;;;;5112132;28;11476;-76
2022/10/30 01:59:49;;;;;;;;;6.00;6.00;;;;;;;;5111991;28;11431;-74
2022/10/30 02:02:14;;;;;;;;;6.00;6.00;;;;;;;;5111611;28;11428;-74
2022/10/30 02:04:40;;;;;;;;;4.50;4.50;;;;;;;;5111624;28;11353;-74
2022/10/30 02:07:05;;;;;;;;;8.75;6.50;;;;;;;;5110247;28;8809;-74
2022/10/30 02:09:31;;;;;;;;;9.00;7.00;;;;;;;;5111721;28;8809;-74
2022/10/30 02:11:57;;;;;;;;;6.25;4.00;;;;;;;;5111895;28;8827;-74
2022/10/30 02:14:25;;;;;;;;;12.75;7.00;;;;;;;;5111708;28;8785;-74
2022/10/30 02:16:51;;;;;;;;;7.00;6.00;;;;;;;;5111638;28;8819;-75
2022/10/30 02:19:17;;;;;;;;;6.00;5.50;;;;;;;;5111418;28;11436;-75
2022/10/30 02:21:42;;;;;;;;;8.00;6.50;;;;;;;;5110904;28;11491;-75
2022/10/30 02:24:08;;;;;;;;;8.00;7.25;;;;;;;;5111620;28;8797;-75
2022/10/30 02:26:33;;;;;;;;;9.00;9.00;;;;;;;;5111549;28;8896;-74
2022/10/30 02:28:58;;;;;;;;;10.50;7.75;;;;;;;;5111250;28;9034;-75
2022/10/30 02:31:24;;;;;;;;;9.00;7.00;;;;;;;;5111366;28;8804;-76
2022/10/30 02:33:49;;;;;;;;;7.50;7.00;;;;;;;;5111506;28;8873;-75
2022/10/30 02:36:14;;;;;;;;;6.00;6.00;;;;;;;;5110767;28;9594;-75
2022/10/30 02:38:40;;;;;;;;;6.25;5.50;;;;;;;;5111191;28;8793;-74
2022/10/30 02:41:05;;;;;;;;;7.00;6.50;;;;;;;;5111569;28;8797;-74
2022/10/30 02:43:31;;;;;;;;;6.00;6.00;;;;;;;;5111255;28;8819;-73
2022/10/30 02:45:56;;;;;;;;;6.00;6.00;;;;;;;;5111555;28;8786;-74
2022/10/30 02:48:21;;;;;;;;;6.00;4.00;;;;;;;;5111279;28;8777;-74
2022/10/30 02:50:46;;;;;;;;;6.75;5.50;;;;;;;;5111034;28;8900;-74
2022/10/30 02:53:12;;;;;;;;;6.75;6.75;;;;;;;;5111418;28;9534;-73
2022/10/30 02:55:37;;;;;;;;;6.00;6.00;;;;;;;;5109593;28;8936;-74
2022/10/30 02:58:03;;;;;;;;;5.50;5.50;;;;;;;;5111310;28;8862;-75
2022/10/30 03:00:28;;;;;;;;;8.00;6.00;;;;;;;;5110904;27;8821;-74
2022/10/30 03:02:54;;;;;;;;;4.00;4.00;;;;;;;;5110869;28;8874;-75
2022/10/30 03:05:19;;;;;;;;;4.25;4.25;;;;;;;;5110850;28;8777;-75
2022/10/30 03:07:47;;;;;;;;;6.50;4.50;;;;;;;;5110943;28;11501;-74
2022/10/30 03:10:12;;;;;;;;;7.75;7.50;;;;;;;;5110788;28;9515;-75
2022/10/30 03:12:38;;;;;;;;;6.00;5.00;;;;;;;;5110411;28;11599;-74
2022/10/30 03:15:03;;;;;;;;;8.00;7.00;;;;;;;;5109354;28;8797;-76
2022/10/30 03:17:28;;;;;;;;;6.25;4.50;;;;;;;;5110952;28;8785;-76
2022/10/30 03:19:54;;;;;;;;;5.00;5.00;;;;;;;;5110483;28;8841;-75
2022/10/30 03:22:19;;;;;;;;;6.00;6.00;;;;;;;;5110977;28;8870;-76
2022/10/30 03:24:44;;;;;;;;;8.00;5.50;;;;;;;;5109876;28;8825;-75
2022/10/30 03:27:10;;;;;;;;;6.50;4.25;;;;;;;;5111366;28;8879;-77
2022/10/30 03:29:35;;;;;;;;;7.00;6.25;;;;;;;;5110717;28;8844;-75
2022/10/30 03:32:00;;;;;;;;;5.50;5.25;;;;;;;;5109468;28;8817;-76
2022/10/30 03:34:26;;;;;;;;;7.75;5.00;;;;;;;;5110233;28;8862;-75
2022/10/30 07:25:07;;;;;;;;;12.50;11.00;;;;;;;;5105079;27;13400;-80
2022/10/30 07:27:40;;;;;;;;;17.25;13.75;;;;;;;;5089968;28;11568;-77
2022/10/30 07:30:05;;;;;;;;;12.00;8.75;;;;;;;;5107450;28;11462;-76
2022/10/30 07:32:31;;;;;;;;;6.50;6.50;;;;;;;;5117530;27;10887;-79
2022/10/30 07:34:56;;;;;;;;;11.00;6.00;;;;;;;;5123932;27;8880;-75
2022/10/30 07:37:21;;;;;;;;;6.33;6.00;;;;;;;;5109549;27;8942;-76
2022/10/30 07:39:47;;;;;;;;;6.67;5.67;;;;;;;;5124863;27;8805;-73
2022/10/30 07:42:12;;;;;;;;;8.00;7.00;;;;;;;;5125680;27;8833;-75
2022/10/30 07:44:37;;;;;;;;;5.33;4.00;;;;;;;;5125656;27;8840;-74
2022/10/30 07:47:03;;;;;;;;;11.00;8.00;;;;;;;;5127496;27;8866;-75
2022/10/30 07:49:28;;;;;;;;;8.67;6.33;;;;;;;;5128055;27;8789;-74
2022/10/30 07:51:53;;;;;;;;;41.00;34.50;;;;;;;;5126996;27;8824;-74
2022/10/30 07:54:18;;;;;;;;;6.33;6.33;;;;;;;;5127371;27;8892;-73
2022/10/30 07:56:44;;;;;;;;;12.33;10.00;;;;;;;;5126810;27;8812;-73
2022/10/30 07:59:09;;;;;;;;;15.33;13.67;;;;;;;;5127122;27;8813;-72
2022/10/30 08:01:34;;;;;;;;;14.67;12.67;;;;;;;;5126755;27;8821;-72
2022/10/30 08:03:59;;;;;;;;;7.00;5.67;;;;;;;;5126994;27;8877;-74
2022/10/30 08:09:18;;;;;;;;;10.50;10.50;;;;;;;;5103858;27;13449;-73
2022/10/30 08:11:44;;;;;;;;;9.00;9.00;;;;;;;;5106852;28;9718;-73
2022/10/30 08:14:09;;;;;;;;;7.00;6.00;;;;;;;;5107629;28;8800;-75
2022/10/30 08:16:34;;;;;;;;;7.00;7.00;;;;;;;;5105016;28;9052;-76
2022/10/30 08:19:00;;;;;;;;;8.50;7.75;;;;;;;;5097646;28;8814;-73
2022/10/30 08:21:25;;;;;;;;;11.00;7.75;;;;;;;;5086611;28;8887;-73
2022/10/30 08:23:50;;;;;;;;;7.00;6.00;;;;;;;;5086726;28;9592;-74
2022/10/30 08:26:15;;;;;;;;;6.00;6.00;;;;;;;;5087281;28;8909;-80
2022/10/30 08:28:41;;;;;;;;;11.75;8.75;;;;;;;;5086843;28;8834;-75
2022/10/30 08:31:06;;;;;;;;;11.25;7.75;;;;;;;;5086355;28;8829;-73
2022/10/30 08:33:31;;;;;;;;;12.25;8.00;;;;;;;;5123749;27;8812;-74
2022/10/30 08:35:58;;;;;;;;;7.50;7.50;;;;;;;;5123777;27;8804;-76
2022/10/30 08:38:24;;;;;;;;;8.25;8.00;;;;;;;;5116513;27;8797;-74
2022/10/30 08:40:50;;;;;;;;;11.25;9.25;;;;;;;;5106916;28;10851;-74
2022/10/30 08:43:16;;;;;;;;;7.25;7.25;;;;;;;;5098619;28;8827;-72
2022/10/30 08:45:41;;;;;;;;;8.00;6.50;;;;;;;;5102783;28;10895;-74
2022/10/30 08:48:09;;;;;;;;;8.00;8.00;;;;;;;;5110025;28;8843;-72
2022/10/30 08:50:34;;;;;;;;;7.50;7.50;;;;;;;;5105291;28;8828;-74
2022/10/30 08:53:05;;;;;;;;;10.75;10.25;;;;;;;;5105564;28;10910;-72
2022/10/30 08:55:31;;;;;;;;;6.00;6.00;;;;;;;;5104663;28;8814;-72
2022/10/30 08:57:57;;;;;;;;;11.75;10.75;;;;;;;;5104147;28;11013;-72
2022/10/30 09:00:22;;;;;;;;;11.00;10.50;;;;;;;;5102907;28;8831;-72
2022/10/30 09:02:47;;;;;;;;;10.50;10.00;;;;;;;;5104210;28;8926;-77
2022/10/30 09:05:12;;;;;;;;;11.50;10.00;;;;;;;;5102372;28;8812;-76
2022/10/30 09:07:38;;;;;;;;;10.25;10.25;;;;;;;;5101074;28;8852;-73
2022/10/30 09:10:03;;;;;;;;;10.50;10.00;;;;;;;;5102519;28;8823;-73
2022/10/30 09:12:28;;;;;;;;;10.50;10.50;;;;;;;;5103035;28;8827;-73
2022/10/30 09:14:54;;;;;;;;;12.75;10.00;;;;;;;;5102674;28;9583;-72
2022/10/30 09:17:19;;;;;;;;;9.00;8.50;;;;;;;;5104009;28;8832;-75
2022/10/30 09:19:44;;;;;;;;;12.75;11.25;;;;;;;;5096015;28;8804;-70
2022/10/30 09:22:09;;;;;;;;;12.50;10.25;;;;;;;;5091097;28;8828;-75
2022/10/30 09:24:36;;;;;;;;;11.25;8.75;;;;;;;;5090870;28;8823;-74
2022/10/30 09:27:01;;;;;;;;;11.25;10.00;;;;;;;;5090611;28;9538;-74
2022/10/30 09:29:26;;;;;;;;;14.50;8.25;;;;;;;;5090763;28;11029;-73
2022/10/30 09:31:52;;;;;;;;;11.25;10.00;;;;;;;;5095729;28;8813;-74
2022/10/30 09:34:17;;;;;;;;;13.00;11.00;;;;;;;;5110864;28;8797;-75
2022/10/30 09:36:42;;;;;;;;;14.00;10.00;;;;;;;;5093423;28;9608;-74
2022/10/30 09:39:08;;;;;;;;;12.50;11.25;;;;;;;;5090587;28;8819;-73
2022/10/30 09:41:52;;;;;;;;;12.00;11.00;;;;;;;;5070434;22;8886;-69
2022/10/30 09:44:35;;;;;;;;;11.75;8.00;;;;;;;;5052936;28;8775;-69
2022/10/30 09:47:07;;;;;;;;;9.50;9.50;;;;;;;;5052478;28;10816;-69
2022/10/30 09:49:35;;;;;;;;;11.50;10.50;;;;;;;;5052589;28;10846;-69
2022/10/30 09:52:10;;;;;;;;;11.00;10.00;;;;;;;;5050579;28;10979;-69
2022/10/30 09:54:36;;;;;;;;;9.00;8.50;;;;;;;;5052285;28;11048;-69
2022/10/30 09:57:07;;;;;;;;;16.50;12.25;;;;;;;;5052477;28;10907;-69
2022/10/30 09:59:42;;;;;;;;;13.00;10.00;;;;;;;;5052252;28;11972;-69
2022/10/30 10:02:25;;;;;;;;;15.00;10.00;;;;;;;;5058608;28;10999;-70
2022/10/30 10:04:53;;;;;;;;;11.00;8.00;;;;;;;;5054980;28;11062;-69
2022/10/30 10:07:21;;;;;;;;;10.50;10.50;;;;;;;;5051875;28;10920;-70
2022/10/30 10:09:48;;;;;;;;;12.00;9.00;;;;;;;;5052115;28;11135;-75
2022/10/30 10:12:27;;;;;;;;;12.00;9.25;;;;;;;;5051760;28;10948;-74
2022/10/30 10:14:53;;;;;;;;;11.50;9.00;;;;;;;;5048131;28;11042;-72
2022/10/30 10:17:29;;;;;;;;;8.25;8.00;;;;;;;;5050082;28;11767;-73
2022/10/30 10:20:00;;;;;;;;;12.50;11.00;;;;;;;;5051129;28;10940;-72
2022/10/30 10:22:28;;;;;;;;;11.25;8.00;;;;;;;;5051027;28;10737;-72
2022/10/30 10:24:54;;;;;;;;;8.75;8.00;;;;;;;;5050337;28;10812;-73
2022/10/30 10:27:38;;;;;;;;;12.00;8.00;;;;;;;;5047318;28;10851;-72
2022/10/30 10:30:09;;;;;;;;;10.00;8.00;;;;;;;;5049584;28;8917;-82
2022/10/30 10:32:37;;;;;;;;;9.25;9.00;;;;;;;;5051056;28;10605;-76
2022/10/30 10:35:05;;;;;;;;;8.00;7.00;;;;;;;;5047660;28;10074;-75
2022/10/30 10:37:42;;;;;;;;;8.00;8.00;;;;;;;;5050150;28;9977;-79
2022/10/30 10:40:22;;;;;;;;;7.75;7.75;;;;;;;;5050507;28;8853;-78
2022/10/30 10:42:50;;;;;;;;;9.00;8.00;;;;;;;;5050615;28;8884;-78
2022/10/30 10:45:18;;;;;;;;;12.75;7.00;;;;;;;;5046661;28;8795;-80
2022/10/30 10:48:13;;;;;;;;;7.80;7.60;;;;;;;;5050445;28;8838;-78
2022/10/30 10:50:45;;;;;;;;;9.20;8.20;;;;;;;;5034560;28;8829;-79
2022/10/30 10:53:11;;;;;;;;;7.80;7.20;;;;;;;;5049562;28;8815;-77
2022/10/30 10:55:37;;;;;;;;;9.50;9.50;;;;;;;;5049203;28;8834;-77
2022/10/30 10:58:11;;;;;;;;;8.40;7.60;;;;;;;;5050036;28;8900;-78
2022/10/30 11:00:38;;;;;;;;;7.80;7.80;;;;;;;;5047392;28;8799;-76
2022/10/30 11:03:22;;;;;;;;;10.00;8.80;;;;;;;;5050569;28;8831;-78
2022/10/30 11:05:53;;;;;;;;;7.00;7.00;;;;;;;;5051455;28;8799;-78
2022/10/30 11:08:26;;;;;;;;;8.60;8.40;;;;;;;;5049992;28;8826;-76
2022/10/30 11:10:57;;;;;;;;;8.00;8.00;;;;;;;;5046666;28;8803;-77
2022/10/30 11:13:23;;;;;;;;;7.75;7.25;;;;;;;;5048744;28;8806;-78
2022/10/30 11:15:52;;;;;;;;;11.00;8.50;;;;;;;;5047903;28;8933;-79
2022/10/30 11:18:17;;;;;;;;;12.25;9.00;;;;;;;;5048879;28;8807;-76
2022/10/30 11:20:54;;;;;;;;;9.00;8.00;;;;;;;;5047340;28;8826;-77
2022/10/30 11:23:29;;;;;;;;;10.25;9.00;;;;;;;;5049560;28;8803;-79
2022/10/30 11:25:55;;;;;;;;;7.50;7.50;;;;;;;;5049167;28;8799;-79
2022/10/30 11:28:40;;;;;;;;;10.33;8.67;;;;;;;;5050239;28;8849;-79
2022/10/30 11:31:23;;;;;;;;;11.00;7.75;;;;;;;;5050092;28;8783;-77
2022/10/30 11:33:49;;;;;;;;;7.25;7.25;;;;;;;;5050029;28;8933;-78
2022/10/30 11:36:21;;;;;;;;;9.75;7.50;;;;;;;;5048690;28;8980;-79
2022/10/30 11:38:46;;;;;;;;;6.00;6.00;;;;;;;;5049866;28;8822;-79
2022/10/30 11:41:13;;;;;;;;;5.33;5.33;;;;;;;;5048821;28;9650;-78
2022/10/30 11:43:39;;;;;;;;;7.25;6.00;;;;;;;;5049940;28;8806;-76
2022/10/30 11:46:08;;;;;;;;;6.00;6.00;;;;;;;;5059513;28;8827;-78
2022/10/30 11:48:36;;;;;;;;;7.00;5.33;;;;;;;;5068086;28;8856;-78
2022/10/30 11:51:02;;;;;;;;;6.00;5.00;;;;;;;;5069577;28;8891;-77
2022/10/30 11:53:34;;;;;;;;;9.00;5.67;;;;;;;;5068630;28;9043;-78
2022/10/30 11:56:00;;;;;;;;;6.00;6.00;;;;;;;;5068982;28;9278;-78
2022/10/30 11:58:26;;;;;;;;;5.67;5.67;;;;;;;;5068950;28;9781;-78
2022/10/30 12:01:18;;;;;;;;;6.00;5.33;;;;;;;;5060985;28;9278;-78
2022/10/30 12:03:44;;;;;;;;;5.33;5.33;;;;;;;;5048573;28;9205;-78
2022/10/30 12:06:19;;;;;;;;;8.00;6.00;;;;;;;;5048178;28;9149;-78
2022/10/30 12:09:01;;;;;;;;;6.33;5.00;;;;;;;;5047031;28;8826;-79
2022/10/30 12:11:27;;;;;;;;;6.33;5.00;;;;;;;;5045969;28;9939;-79
2022/10/30 12:13:53;;;;;;;;;7.00;5.33;;;;;;;;5049295;28;9425;-79
2022/10/30 12:16:19;;;;;;;;;3.67;3.67;;;;;;;;5049617;28;9246;-80
2022/10/30 12:18:53;;;;;;;;;5.75;5.75;;;;;;;;5049707;28;9283;-79
2022/10/30 12:21:19;;;;;;;;;6.00;5.00;;;;;;;;5048210;28;9553;-78
2022/10/30 12:23:49;;;;;;;;;9.00;7.50;;;;;;;;5049663;28;9537;-78
2022/10/30 12:26:14;;;;;;;;;6.00;6.00;;;;;;;;5049633;28;9517;-78
2022/10/30 12:28:49;;;;;;;;;9.00;6.00;;;;;;;;5049444;28;9378;-77
2022/10/30 12:31:19;;;;;;;;;5.25;5.00;;;;;;;;5049101;28;8811;-80
2022/10/30 12:33:45;;;;;;;;;9.75;6.25;;;;;;;;5084344;28;9427;-78
2022/10/30 12:36:13;;;;;;;;;6.50;6.50;;;;;;;;5049313;28;9676;-79
2022/10/30 12:38:48;;;;;;;;;6.00;5.50;;;;;;;;5049397;28;8839;-78
2022/10/30 12:41:17;;;;;;;;;9.00;7.00;;;;;;;;5047901;28;9553;-78
2022/10/30 12:43:46;;;;;;;;;8.00;7.25;;;;;;;;5049523;28;9734;-77
2022/10/30 12:46:33;;;;;;;;;8.00;6.00;;;;;;;;5048115;28;9658;-77
2022/10/30 12:49:02;;;;;;;;;8.50;7.00;;;;;;;;5046688;28;9686;-84
2022/10/30 12:51:27;;;;;;;;;8.50;8.25;;;;;;;;5048586;28;9727;-90
2022/10/30 12:54:02;;;;;;;;;8.00;6.00;;;;;;;;5045842;28;9870;-87
2022/10/30 12:56:30;;;;;;;;;8.50;6.75;;;;;;;;5052709;28;9566;-85
2022/10/30 12:58:55;;;;;;;;;8.75;6.00;;;;;;;;5053090;28;9815;-84
2022/10/30 13:01:30;;;;;;;;;8.00;7.00;;;;;;;;5051086;28;9663;-84
2022/10/30 13:04:02;;;;;;;;;6.50;6.50;;;;;;;;5052510;28;8790;-86
2022/10/30 13:06:30;;;;;;;;;8.00;7.00;;;;;;;;5051268;28;9652;-85
2022/10/30 13:09:05;;;;;;;;;7.25;7.00;;;;;;;;5052895;28;9660;-84
2022/10/30 13:11:39;;;;;;;;;4.75;4.75;;;;;;;;5053180;28;9619;-86
2022/10/30 13:14:08;;;;;;;;;12.00;7.25;;;;;;;;5053235;28;9660;-86
2022/10/30 13:16:34;;;;;;;;;8.75;8.75;;;;;;;;5052998;28;9654;-84
2022/10/30 13:19:00;;;;;;;;;6.25;5.50;;;;;;;;5053040;28;9811;-83
2022/10/30 13:21:28;;;;;;;;;7.00;6.00;;;;;;;;5053027;28;9651;-80
2022/10/30 13:23:56;;;;;;;;;7.00;7.00;;;;;;;;5052613;28;8810;-78
2022/10/30 13:26:27;;;;;;;;;7.50;6.00;;;;;;;;5052294;28;9620;-80
2022/10/30 13:29:25;;;;;;;;;6.50;6.00;;;;;;;;5052963;28;9510;-77
2022/10/30 13:32:06;;;;;;;;;8.50;6.50;;;;;;;;5034119;28;10348;-77
2022/10/30 13:34:43;;;;;;;;;8.00;8.00;;;;;;;;5073025;28;9550;-77
2022/10/30 13:37:11;;;;;;;;;8.50;8.50;;;;;;;;5072816;28;9566;-77
2022/10/30 13:42:14;;;;;;;;;8.75;8.00;;;;;;;;5088031;28;9978;-75
2022/10/30 13:45:12;;;;;;;;;10.00;6.50;;;;;;;;5091932;28;9711;-77
2022/10/30 13:47:45;;;;;;;;;9.50;6.25;;;;;;;;5035103;28;9816;-76
2022/10/30 13:50:11;;;;;;;;;10.00;9.00;;;;;;;;5091764;28;9660;-75
2022/10/30 13:52:38;;;;;;;;;9.00;8.00;;;;;;;;5091382;28;9720;-75
2022/10/30 13:55:12;;;;;;;;;7.50;7.50;;;;;;;;5091655;28;9558;-81
2022/10/30 13:57:42;;;;;;;;;10.00;8.75;;;;;;;;5091482;28;9860;-76
2022/10/30 14:00:13;;;;;;;;;11.25;8.00;;;;;;;;5090426;28;9888;-79
2022/10/30 14:02:42;;;;;;;;;12.25;8.75;;;;;;;;5091150;28;9923;-77
2022/10/30 14:05:10;;;;;;;;;6.25;6.25;;;;;;;;5091907;28;10482;-78
2022/10/30 14:07:40;;;;;;;;;11.25;9.75;;;;;;;;5091644;28;9660;-77
2022/10/30 14:10:09;;;;;;;;;10.50;10.50;;;;;;;;5091836;28;9908;-76
2022/10/30 14:12:44;;;;;;;;;5.75;4.00;;;;;;;;5091583;28;9969;-76
2022/10/30 14:15:28;;;;;;;;;9.00;9.00;;;;;;;;5091220;28;9782;-75
2022/10/30 14:18:09;;;;;;;;;10.25;5.25;;;;;;;;5090020;28;9687;-76
2022/10/30 14:20:34;;;;;;;;;17.50;15.75;;;;;;;;5090785;28;9734;-75
2022/10/30 14:23:07;;;;;;;;;9.00;6.25;;;;;;;;5090982;28;11014;-76
2022/10/30 14:25:32;;;;;;;;;7.50;6.25;;;;;;;;5091499;28;8976;-77
2022/10/30 14:27:58;;;;;;;;;9.25;7.50;;;;;;;;5091602;28;9597;-76
2022/10/30 14:30:26;;;;;;;;;11.00;9.25;;;;;;;;5091289;28;8784;-76
2022/10/30 14:32:54;;;;;;;;;5.75;5.00;;;;;;;;5091180;28;8831;-77
2022/10/30 14:35:33;;;;;;;;;5.50;5.50;;;;;;;;5090934;28;9498;-77
2022/10/30 14:38:14;;;;;;;;;4.75;4.25;;;;;;;;5090441;28;9623;-77
2022/10/30 14:40:45;;;;;;;;;6.00;3.75;;;;;;;;5096568;22;9731;-75
2022/10/30 14:43:30;;;;;;;;;8.75;7.50;;;;;;;;5071250;28;9616;-74
2022/10/30 14:45:59;;;;;;;;;8.00;8.00;;;;;;;;5070836;28;9578;-75
2022/10/30 14:48:29;;;;;;;;;8.00;7.00;;;;;;;;5070981;28;9546;-74
2022/10/30 14:50:57;;;;;;;;;5.00;5.00;;;;;;;;5070421;28;9635;-74
2022/10/30 14:53:28;;;;;;;;;7.00;7.00;;;;;;;;5070805;28;9652;-76
2022/10/30 14:56:18;;;;;;;;;9.75;8.75;;;;;;;;5068988;28;9643;-75
2022/10/30 14:58:54;;;;;;;;;9.00;8.00;;;;;;;;5070987;28;9864;-73
2022/10/30 15:01:22;;;;;;;;;10.75;10.00;;;;;;;;5070550;28;9651;-75
2022/10/30 15:03:59;;;;;;;;;9.75;8.25;;;;;;;;5050726;28;9843;-75
2022/10/30 15:06:30;;;;;;;;;9.50;9.00;;;;;;;;5049161;28;9896;-75
2022/10/30 15:08:55;;;;;;;;;9.50;8.50;;;;;;;;5050600;28;10025;-74
2022/10/30 15:11:34;;;;;;;;;10.25;8.50;;;;;;;;5050826;28;9791;-74
2022/10/30 15:14:01;;;;;;;;;11.00;11.00;;;;;;;;5049473;28;8803;-75
2022/10/30 15:16:27;;;;;;;;;9.00;8.75;;;;;;;;5050061;28;10437;-77
2022/10/30 15:18:58;;;;;;;;;5.75;5.75;;;;;;;;5051170;28;9826;-74
2022/10/30 15:21:28;;;;;;;;;12.25;9.25;;;;;;;;5050368;28;9614;-76
2022/10/30 15:23:55;;;;;;;;;9.75;9.50;;;;;;;;5050294;28;10109;-75
2022/10/30 15:26:21;;;;;;;;;11.25;9.50;;;;;;;;5049970;28;10408;-75
2022/10/30 15:28:49;;;;;;;;;11.25;11.25;;;;;;;;5048257;28;9849;-73
2022/10/30 15:31:24;;;;;;;;;14.75;9.00;;;;;;;;5049762;28;9872;-75
2022/10/30 15:33:49;;;;;;;;;12.25;11.00;;;;;;;;5050314;28;9822;-75
2022/10/30 15:36:19;;;;;;;;;12.00;10.75;;;;;;;;5049300;28;10078;-74
2022/10/30 15:38:44;;;;;;;;;12.25;12.25;;;;;;;;5050056;28;8794;-74
2022/10/30 15:41:10;;;;;;;;;12.25;11.25;;;;;;;;5050789;28;10269;-75
2022/10/30 15:43:40;;;;;;;;;12.50;12.50;;;;;;;;5049130;28;8825;-75
2022/10/30 15:46:09;;;;;;;;;14.75;12.00;;;;;;;;5048292;28;8812;-76
2022/10/30 15:48:37;;;;;;;;;15.25;12.50;;;;;;;;5052496;28;9978;-77
2022/10/30 15:51:16;;;;;;;;;12.25;12.25;;;;;;;;5063561;28;10099;-76
2022/10/30 15:53:45;;;;;;;;;14.00;11.50;;;;;;;;5052126;28;9944;-73
2022/10/30 15:56:16;;;;;;;;;13.25;12.25;;;;;;;;5048811;28;10145;-76
2022/10/30 15:58:43;;;;;;;;;12.75;12.75;;;;;;;;5049912;28;9970;-74
2022/10/30 16:01:22;;;;;;;;;15.75;13.00;;;;;;;;5049537;28;10277;-75
2022/10/30 16:03:51;;;;;;;;;17.25;14.25;;;;;;;;5047649;28;10336;-77
2022/10/30 16:06:17;;;;;;;;;14.25;13.25;;;;;;;;5049556;28;10361;-75
2022/10/30 16:08:46;;;;;;;;;14.25;14.25;;;;;;;;5049631;28;10287;-75
2022/10/30 16:11:12;;;;;;;;;15.50;15.00;;;;;;;;5049959;28;8797;-76
2022/10/30 16:13:37;;;;;;;;;9.75;9.25;;;;;;;;5049820;28;10350;-75
2022/10/30 16:16:02;;;;;;;;;12.25;8.50;;;;;;;;5049713;28;12242;-73
2022/10/30 16:18:34;;;;;;;;;11.00;9.50;;;;;;;;5049946;28;8801;-73
2022/10/30 16:21:05;;;;;;;;;13.00;11.75;;;;;;;;5049678;28;8793;-75
2022/10/30 16:23:36;;;;;;;;;15.00;13.75;;;;;;;;5047712;28;10329;-74
2022/10/30 16:26:01;;;;;;;;;13.50;12.50;;;;;;;;5049764;28;10348;-76
2022/10/30 16:28:29;;;;;;;;;58.50;48.00;;;;;;;;5049803;28;10616;-76
2022/10/30 16:30:56;;;;;;;;;67.00;53.00;;;;;;;;5053094;28;8796;-74
2022/10/30 16:33:24;;;;;;;;;61.75;49.75;;;;;;;;5070363;28;11515;-76
2022/10/30 16:35:50;;;;;;;;;40.75;35.50;;;;;;;;5073663;28;11564;-75
2022/10/30 16:38:16;;;;;;;;;22.00;21.50;;;;;;;;5073398;28;11531;-75
2022/10/30 16:40:41;;;;;;;;;19.25;16.75;;;;;;;;5072768;28;8814;-74
2022/10/30 16:43:22;;;;;;;;;18.50;14.50;;;;;;;;5073900;28;8937;-76
2022/10/30 16:45:48;;;;;;;;;15.00;13.50;;;;;;;;5072409;28;8807;-75
2022/10/30 16:48:16;;;;;;;;;14.00;13.00;;;;;;;;5072200;28;10775;-76
2022/10/30 16:50:41;;;;;;;;;17.75;17.25;;;;;;;;5072395;28;8802;-72
2022/10/30 16:53:14;;;;;;;;;22.50;19.00;;;;;;;;5073066;28;10896;-76
2022/10/30 16:55:39;;;;;;;;;16.50;14.75;;;;;;;;5073222;28;8863;-77
2022/10/30 16:58:05;;;;;;;;;16.50;15.50;;;;;;;;5069490;28;10639;-76
2022/10/30 17:00:33;;;;;;;;;18.00;15.00;;;;;;;;5072299;28;8818;-76
2022/10/30 17:03:05;;;;;;;;;19.25;15.25;;;;;;;;5072470;28;8802;-79
2022/10/30 17:05:35;;;;;;;;;15.25;13.00;;;;;;;;5072190;28;10503;-76
2022/10/30 17:08:16;;;;;;;;;18.00;13.00;;;;;;;;5071920;28;10594;-75
2022/10/30 17:10:43;;;;;;;;;18.50;15.25;;;;;;;;5072238;28;10523;-75
2022/10/30 17:13:26;;;;;;;;;15.25;14.00;;;;;;;;5071548;28;10719;-78
2022/10/30 17:15:52;;;;;;;;;15.00;14.00;;;;;;;;5071039;28;10540;-74
2022/10/30 17:18:19;;;;;;;;;16.00;11.50;;;;;;;;5071276;28;10719;-76
2022/10/30 17:20:45;;;;;;;;;18.75;14.00;;;;;;;;5069212;28;8937;-73
2022/10/30 17:23:16;;;;;;;;;12.50;12.50;;;;;;;;5071502;28;10739;-75
2022/10/30 17:25:42;;;;;;;;;12.25;12.25;;;;;;;;5072781;28;8790;-79
2022/10/30 17:28:24;;;;;;;;;12.75;12.00;;;;;;;;5072000;28;10816;-76
2022/10/30 17:30:49;;;;;;;;;14.25;13.50;;;;;;;;5057107;28;8819;-79
2022/10/30 17:33:20;;;;;;;;;18.00;16.50;;;;;;;;5060897;28;10642;-78
2022/10/30 17:35:46;;;;;;;;;14.00;12.25;;;;;;;;5061338;28;8932;-75
2022/10/30 17:38:11;;;;;;;;;19.75;14.25;;;;;;;;5068935;28;10874;-77
2022/10/30 17:40:39;;;;;;;;;19.50;18.25;;;;;;;;5062164;28;8815;-75
2022/10/30 17:43:14;;;;;;;;;20.25;19.50;;;;;;;;5059832;28;8824;-76
2022/10/30 17:45:43;;;;;;;;;18.00;17.00;;;;;;;;5061659;28;11905;-74
2022/10/30 17:48:11;;;;;;;;;14.75;14.75;;;;;;;;5063682;28;10846;-75
2022/10/30 17:50:37;;;;;;;;;17.00;14.75;;;;;;;;5060790;28;10973;-74
2022/10/30 17:53:02;;;;;;;;;20.00;16.75;;;;;;;;5058748;28;10949;-75
2022/10/30 17:55:29;;;;;;;;;18.00;16.00;;;;;;;;5061006;28;8872;-75
2022/10/30 17:57:54;;;;;;;;;15.50;14.50;;;;;;;;5061254;28;8856;-74
2022/10/30 18:00:19;;;;;;;;;19.00;15.25;;;;;;;;5062919;28;10929;-74
2022/10/30 18:02:45;;;;;;;;;16.75;16.50;;;;;;;;5062995;28;8802;-76
2022/10/30 18:05:13;;;;;;;;;18.25;16.00;;;;;;;;5060971;28;8797;-74
2022/10/30 18:07:40;;;;;;;;;18.75;18.50;;;;;;;;5061686;28;8922;-76
2022/10/30 18:10:06;;;;;;;;;16.00;16.00;;;;;;;;5060230;28;11148;-76
2022/10/30 18:12:31;;;;;;;;;16.75;15.50;;;;;;;;5074608;28;9016;-75
2022/10/30 18:14:56;;;;;;;;;24.50;22.50;;;;;;;;5061322;28;9597;-75
2022/10/30 18:17:21;;;;;;;;;19.50;17.00;;;;;;;;5059092;28;8999;-73
2022/10/30 18:19:47;;;;;;;;;34.25;29.25;;;;;;;;5060499;28;8815;-77
2022/10/30 18:22:12;;;;;;;;;19.00;17.75;;;;;;;;5062529;28;8807;-76
2022/10/30 18:24:37;;;;;;;;;17.25;16.25;;;;;;;;5069306;28;8782;-74
2022/10/30 18:27:02;;;;;;;;;22.25;18.00;;;;;;;;5069543;28;8814;-80
2022/10/30 18:29:28;;;;;;;;;19.25;17.75;;;;;;;;5069778;28;8953;-73
2022/10/30 18:31:53;;;;;;;;;25.75;23.50;;;;;;;;5065783;28;8883;-75
2022/10/30 18:34:20;;;;;;;;;29.00;25.00;;;;;;;;5057326;28;8812;-75
2022/10/30 18:36:45;;;;;;;;;50.25;42.50;;;;;;;;5052330;28;8803;-71
2022/10/30 18:39:11;;;;;;;;;39.00;34.00;;;;;;;;5051792;28;11619;-74
2022/10/30 18:41:39;;;;;;;;;32.75;30.25;;;;;;;;5057825;28;9918;-72
2022/10/30 18:44:05;;;;;;;;;19.00;16.25;;;;;;;;5059046;28;11460;-72
2022/10/30 18:46:30;;;;;;;;;22.75;19.75;;;;;;;;5059281;28;11309;-72
2022/10/30 18:48:55;;;;;;;;;21.25;21.25;;;;;;;;5060219;28;8869;-72